sensor_id;sensor_type;location;lat;lon;timestamp;P1;durP1;ratioP1;P2;durP2;ratioP2
84353;SDS011;74538;43.522;1.516;2024-02-26T00:01:48;4.13;;;1.70;;
84353;SDS011;74538;43.522;1.516;2024-02-26T00:04:14;3.33;;;1.50;;
84353;SDS011;74538;43.522;1.516;2024-02-26T00:06:39;3.30;;;1.58;;
84353;SDS011;74538;43.522;1.516;2024-02-26T00:09:08;3.70;;;1.53;;
84353;SDS011;74538;43.522;1.516;2024-02-26T00:11:37;3.75;;;1.40;;
84353;SDS011;74538;43.522;1.516;2024-02-26T00:14:04;3.95;;;1.70;;
84353;SDS011;74538;43.522;1.516;2024-02-26T00:16:30;3.40;;;1.50;;
84353;SDS011;74538;43.522;1.516;2024-02-26T00:18:55;3.57;;;1.60;;
84353;SDS011;74538;43.522;1.516;2024-02-26T00:21:21;3.30;;;1.50;;
84353;SDS011;74538;43.522;1.516;2024-02-26T00:23:46;3.55;;;1.70;;
84353;SDS011;74538;43.522;1.516;2024-02-26T00:26:12;3.63;;;2.00;;
84353;SDS011;74538;43.522;1.516;2024-02-26T00:28:37;3.43;;;1.80;;
84353;SDS011;74538;43.522;1.516;2024-02-26T00:31:03;4.68;;;1.73;;
84353;SDS011;74538;43.522;1.516;2024-02-26T00:33:28;3.03;;;1.50;;
84353;SDS011;74538;43.522;1.516;2024-02-26T00:35:54;4.10;;;1.50;;
84353;SDS011;74538;43.522;1.516;2024-02-26T00:38:20;3.88;;;2.00;;
84353;SDS011;74538;43.522;1.516;2024-02-26T00:40:45;4.50;;;1.70;;
84353;SDS011;74538;43.522;1.516;2024-02-26T00:43:11;3.78;;;1.70;;
84353;SDS011;74538;43.522;1.516;2024-02-26T00:45:36;4.17;;;1.50;;
84353;SDS011;74538;43.522;1.516;2024-02-26T00:48:02;3.20;;;1.83;;
84353;SDS011;74538;43.522;1.516;2024-02-26T00:50:33;3.65;;;1.58;;
84353;SDS011;74538;43.522;1.516;2024-02-26T00:53:02;3.70;;;1.58;;
84353;SDS011;74538;43.522;1.516;2024-02-26T00:55:28;3.70;;;1.55;;
84353;SDS011;74538;43.522;1.516;2024-02-26T00:57:54;3.03;;;1.40;;
84353;SDS011;74538;43.522;1.516;2024-02-26T01:00:20;4.10;;;1.67;;
84353;SDS011;74538;43.522;1.516;2024-02-26T01:02:46;4.03;;;1.52;;
84353;SDS011;74538;43.522;1.516;2024-02-26T01:05:12;3.60;;;1.47;;
84353;SDS011;74538;43.522;1.516;2024-02-26T01:07:38;3.05;;;1.30;;
84353;SDS011;74538;43.522;1.516;2024-02-26T01:10:04;3.60;;;1.50;;
84353;SDS011;74538;43.522;1.516;2024-02-26T01:12:32;4.13;;;1.42;;
84353;SDS011;74538;43.522;1.516;2024-02-26T01:14:58;4.37;;;1.70;;
84353;SDS011;74538;43.522;1.516;2024-02-26T01:17:24;4.30;;;1.97;;
84353;SDS011;74538;43.522;1.516;2024-02-26T01:19:49;3.50;;;1.60;;
84353;SDS011;74538;43.522;1.516;2024-02-26T01:22:15;2.97;;;1.50;;
84353;SDS011;74538;43.522;1.516;2024-02-26T01:24:41;3.03;;;1.40;;
84353;SDS011;74538;43.522;1.516;2024-02-26T01:27:07;3.10;;;1.48;;
84353;SDS011;74538;43.522;1.516;2024-02-26T01:29:34;3.78;;;1.30;;
84353;SDS011;74538;43.522;1.516;2024-02-26T01:31:59;4.30;;;1.63;;
84353;SDS011;74538;43.522;1.516;2024-02-26T01:34:25;3.50;;;1.43;;
84353;SDS011;74538;43.522;1.516;2024-02-26T01:36:50;3.10;;;1.35;;
84353;SDS011;74538;43.522;1.516;2024-02-26T01:39:16;4.00;;;1.40;;
84353;SDS011;74538;43.522;1.516;2024-02-26T01:41:41;3.30;;;1.43;;
84353;SDS011;74538;43.522;1.516;2024-02-26T01:44:08;3.03;;;1.45;;
84353;SDS011;74538;43.522;1.516;2024-02-26T01:46:37;2.95;;;1.23;;
84353;SDS011;74538;43.522;1.516;2024-02-26T01:49:03;3.50;;;1.40;;
84353;SDS011;74538;43.522;1.516;2024-02-26T01:51:29;3.45;;;1.50;;
84353;SDS011;74538;43.522;1.516;2024-02-26T01:53:55;4.45;;;1.55;;
84353;SDS011;74538;43.522;1.516;2024-02-26T01:56:22;3.58;;;1.55;;
84353;SDS011;74538;43.522;1.516;2024-02-26T01:58:53;3.70;;;1.47;;
84353;SDS011;74538;43.522;1.516;2024-02-26T02:01:18;3.08;;;1.40;;
84353;SDS011;74538;43.522;1.516;2024-02-26T02:03:47;4.13;;;1.63;;
84353;SDS011;74538;43.522;1.516;2024-02-26T02:06:13;3.47;;;1.37;;
84353;SDS011;74538;43.522;1.516;2024-02-26T02:08:39;3.40;;;1.55;;
84353;SDS011;74538;43.522;1.516;2024-02-26T02:11:05;4.07;;;1.60;;
84353;SDS011;74538;43.522;1.516;2024-02-26T02:13:32;3.45;;;1.67;;
84353;SDS011;74538;43.522;1.516;2024-02-26T02:15:57;3.73;;;2.03;;
84353;SDS011;74538;43.522;1.516;2024-02-26T02:18:23;3.93;;;1.83;;
84353;SDS011;74538;43.522;1.516;2024-02-26T02:20:48;3.30;;;1.60;;
84353;SDS011;74538;43.522;1.516;2024-02-26T02:23:14;3.33;;;1.55;;
84353;SDS011;74538;43.522;1.516;2024-02-26T02:25:39;3.50;;;1.50;;
84353;SDS011;74538;43.522;1.516;2024-02-26T02:28:05;4.03;;;1.70;;
84353;SDS011;74538;43.522;1.516;2024-02-26T02:30:31;3.35;;;1.60;;
84353;SDS011;74538;43.522;1.516;2024-02-26T02:32:58;2.88;;;1.40;;
84353;SDS011;74538;43.522;1.516;2024-02-26T02:35:24;4.13;;;1.50;;
84353;SDS011;74538;43.522;1.516;2024-02-26T02:37:51;3.80;;;1.70;;
84353;SDS011;74538;43.522;1.516;2024-02-26T02:40:17;3.67;;;1.50;;
84353;SDS011;74538;43.522;1.516;2024-02-26T02:42:43;3.33;;;1.60;;
84353;SDS011;74538;43.522;1.516;2024-02-26T02:45:09;3.15;;;1.42;;
84353;SDS011;74538;43.522;1.516;2024-02-26T02:47:38;4.13;;;1.87;;
84353;SDS011;74538;43.522;1.516;2024-02-26T02:50:03;3.53;;;1.70;;
84353;SDS011;74538;43.522;1.516;2024-02-26T02:52:30;4.07;;;1.98;;
84353;SDS011;74538;43.522;1.516;2024-02-26T02:54:55;4.07;;;1.63;;
84353;SDS011;74538;43.522;1.516;2024-02-26T02:57:21;3.63;;;1.63;;
84353;SDS011;74538;43.522;1.516;2024-02-26T02:59:47;3.20;;;1.40;;
84353;SDS011;74538;43.522;1.516;2024-02-26T03:02:13;2.90;;;1.30;;
84353;SDS011;74538;43.522;1.516;2024-02-26T03:04:38;3.72;;;1.70;;
84353;SDS011;74538;43.522;1.516;2024-02-26T03:07:04;3.57;;;1.70;;
84353;SDS011;74538;43.522;1.516;2024-02-26T03:09:29;4.13;;;1.40;;
84353;SDS011;74538;43.522;1.516;2024-02-26T03:11:55;3.60;;;1.92;;
84353;SDS011;74538;43.522;1.516;2024-02-26T03:14:20;4.57;;;1.50;;
84353;SDS011;74538;43.522;1.516;2024-02-26T03:16:46;3.93;;;1.87;;
84353;SDS011;74538;43.522;1.516;2024-02-26T03:19:14;4.63;;;1.70;;
84353;SDS011;74538;43.522;1.516;2024-02-26T03:21:40;3.72;;;1.60;;
84353;SDS011;74538;43.522;1.516;2024-02-26T03:24:06;4.83;;;1.80;;
84353;SDS011;74538;43.522;1.516;2024-02-26T03:26:34;3.42;;;1.67;;
84353;SDS011;74538;43.522;1.516;2024-02-26T03:28:59;4.27;;;1.80;;
84353;SDS011;74538;43.522;1.516;2024-02-26T03:31:26;4.55;;;1.98;;
84353;SDS011;74538;43.522;1.516;2024-02-26T03:33:52;4.27;;;1.60;;
84353;SDS011;74538;43.522;1.516;2024-02-26T03:36:17;3.80;;;1.63;;
84353;SDS011;74538;43.522;1.516;2024-02-26T03:38:43;4.22;;;1.60;;
84353;SDS011;74538;43.522;1.516;2024-02-26T03:41:08;3.90;;;1.67;;
84353;SDS011;74538;43.522;1.516;2024-02-26T03:43:34;3.25;;;1.50;;
84353;SDS011;74538;43.522;1.516;2024-02-26T03:46:00;4.30;;;1.80;;
84353;SDS011;74538;43.522;1.516;2024-02-26T03:48:25;3.53;;;1.60;;
84353;SDS011;74538;43.522;1.516;2024-02-26T03:50:51;4.60;;;1.63;;
84353;SDS011;74538;43.522;1.516;2024-02-26T03:53:16;3.90;;;1.70;;
84353;SDS011;74538;43.522;1.516;2024-02-26T03:55:42;4.07;;;1.80;;
84353;SDS011;74538;43.522;1.516;2024-02-26T03:58:07;4.65;;;1.85;;
84353;SDS011;74538;43.522;1.516;2024-02-26T04:00:34;4.78;;;2.00;;
84353;SDS011;74538;43.522;1.516;2024-02-26T04:02:59;4.50;;;2.07;;
84353;SDS011;74538;43.522;1.516;2024-02-26T04:05:25;3.33;;;1.77;;
84353;SDS011;74538;43.522;1.516;2024-02-26T04:07:50;4.50;;;1.95;;
84353;SDS011;74538;43.522;1.516;2024-02-26T04:10:16;3.70;;;1.70;;
84353;SDS011;74538;43.522;1.516;2024-02-26T04:12:42;4.22;;;1.40;;
84353;SDS011;74538;43.522;1.516;2024-02-26T04:15:08;3.57;;;1.80;;
84353;SDS011;74538;43.522;1.516;2024-02-26T04:17:35;4.55;;;1.83;;
84353;SDS011;74538;43.522;1.516;2024-02-26T04:20:01;3.20;;;1.40;;
84353;SDS011;74538;43.522;1.516;2024-02-26T04:22:27;3.58;;;1.70;;
84353;SDS011;74538;43.522;1.516;2024-02-26T04:24:53;3.47;;;1.50;;
84353;SDS011;74538;43.522;1.516;2024-02-26T04:27:18;3.80;;;1.87;;
84353;SDS011;74538;43.522;1.516;2024-02-26T04:29:44;5.10;;;1.88;;
84353;SDS011;74538;43.522;1.516;2024-02-26T04:32:10;4.43;;;1.80;;
84353;SDS011;74538;43.522;1.516;2024-02-26T04:34:35;4.73;;;1.53;;
84353;SDS011;74538;43.522;1.516;2024-02-26T04:37:01;3.90;;;1.50;;
84353;SDS011;74538;43.522;1.516;2024-02-26T04:39:26;3.97;;;1.63;;
84353;SDS011;74538;43.522;1.516;2024-02-26T04:41:52;3.67;;;1.50;;
84353;SDS011;74538;43.522;1.516;2024-02-26T04:44:17;3.20;;;1.42;;
84353;SDS011;74538;43.522;1.516;2024-02-26T04:46:43;5.23;;;1.80;;
84353;SDS011;74538;43.522;1.516;2024-02-26T04:49:08;3.90;;;1.60;;
84353;SDS011;74538;43.522;1.516;2024-02-26T04:51:34;3.45;;;1.60;;
84353;SDS011;74538;43.522;1.516;2024-02-26T04:54:00;4.60;;;1.60;;
84353;SDS011;74538;43.522;1.516;2024-02-26T04:56:25;3.13;;;1.45;;
84353;SDS011;74538;43.522;1.516;2024-02-26T04:58:51;3.87;;;1.57;;
84353;SDS011;74538;43.522;1.516;2024-02-26T05:01:16;3.73;;;1.50;;
84353;SDS011;74538;43.522;1.516;2024-02-26T05:03:42;3.53;;;1.60;;
84353;SDS011;74538;43.522;1.516;2024-02-26T05:06:08;3.63;;;1.63;;
84353;SDS011;74538;43.522;1.516;2024-02-26T05:08:34;4.77;;;1.73;;
84353;SDS011;74538;43.522;1.516;2024-02-26T05:11:01;4.22;;;1.80;;
84353;SDS011;74538;43.522;1.516;2024-02-26T05:13:28;3.83;;;1.52;;
84353;SDS011;74538;43.522;1.516;2024-02-26T05:15:54;4.00;;;1.55;;
84353;SDS011;74538;43.522;1.516;2024-02-26T05:18:19;3.63;;;1.50;;
84353;SDS011;74538;43.522;1.516;2024-02-26T05:20:45;3.13;;;1.33;;
84353;SDS011;74538;43.522;1.516;2024-02-26T05:23:10;3.87;;;1.70;;
84353;SDS011;74538;43.522;1.516;2024-02-26T05:25:36;4.05;;;1.50;;
84353;SDS011;74538;43.522;1.516;2024-02-26T05:28:01;4.80;;;1.63;;
84353;SDS011;74538;43.522;1.516;2024-02-26T05:30:27;3.47;;;1.50;;
84353;SDS011;74538;43.522;1.516;2024-02-26T05:32:53;3.88;;;1.40;;
84353;SDS011;74538;43.522;1.516;2024-02-26T05:35:19;3.03;;;1.33;;
84353;SDS011;74538;43.522;1.516;2024-02-26T05:37:44;3.40;;;1.50;;
84353;SDS011;74538;43.522;1.516;2024-02-26T05:40:10;2.75;;;1.30;;
84353;SDS011;74538;43.522;1.516;2024-02-26T05:42:36;3.40;;;1.42;;
84353;SDS011;74538;43.522;1.516;2024-02-26T05:45:02;3.07;;;1.30;;
84353;SDS011;74538;43.522;1.516;2024-02-26T05:47:32;4.65;;;1.50;;
84353;SDS011;74538;43.522;1.516;2024-02-26T05:49:58;2.60;;;1.10;;
84353;SDS011;74538;43.522;1.516;2024-02-26T05:52:25;3.05;;;1.45;;
84353;SDS011;74538;43.522;1.516;2024-02-26T05:54:51;3.80;;;1.30;;
84353;SDS011;74538;43.522;1.516;2024-02-26T05:57:17;3.88;;;1.40;;
84353;SDS011;74538;43.522;1.516;2024-02-26T05:59:43;3.17;;;1.03;;
84353;SDS011;74538;43.522;1.516;2024-02-26T06:02:09;3.47;;;1.52;;
84353;SDS011;74538;43.522;1.516;2024-02-26T06:04:34;3.27;;;1.40;;
84353;SDS011;74538;43.522;1.516;2024-02-26T06:07:00;2.80;;;1.00;;
84353;SDS011;74538;43.522;1.516;2024-02-26T06:09:25;3.33;;;1.10;;
84353;SDS011;74538;43.522;1.516;2024-02-26T06:11:51;2.73;;;1.10;;
84353;SDS011;74538;43.522;1.516;2024-02-26T06:14:17;4.03;;;1.30;;
84353;SDS011;74538;43.522;1.516;2024-02-26T06:16:44;2.97;;;0.90;;
84353;SDS011;74538;43.522;1.516;2024-02-26T06:19:09;3.07;;;1.20;;
84353;SDS011;74538;43.522;1.516;2024-02-26T06:21:35;3.03;;;1.10;;
84353;SDS011;74538;43.522;1.516;2024-02-26T06:24:01;3.80;;;1.30;;
84353;SDS011;74538;43.522;1.516;2024-02-26T06:26:27;2.90;;;1.23;;
84353;SDS011;74538;43.522;1.516;2024-02-26T06:28:54;2.90;;;1.10;;
84353;SDS011;74538;43.522;1.516;2024-02-26T06:31:21;3.63;;;1.10;;
84353;SDS011;74538;43.522;1.516;2024-02-26T06:33:48;3.35;;;1.10;;
84353;SDS011;74538;43.522;1.516;2024-02-26T06:36:15;2.67;;;1.20;;
84353;SDS011;74538;43.522;1.516;2024-02-26T06:38:41;3.45;;;1.10;;
84353;SDS011;74538;43.522;1.516;2024-02-26T06:41:06;3.27;;;0.90;;
84353;SDS011;74538;43.522;1.516;2024-02-26T06:43:32;3.00;;;1.13;;
84353;SDS011;74538;43.522;1.516;2024-02-26T06:45:57;3.53;;;1.10;;
84353;SDS011;74538;43.522;1.516;2024-02-26T06:48:24;2.65;;;1.10;;
84353;SDS011;74538;43.522;1.516;2024-02-26T06:50:49;2.47;;;1.00;;
84353;SDS011;74538;43.522;1.516;2024-02-26T06:53:15;3.08;;;1.05;;
84353;SDS011;74538;43.522;1.516;2024-02-26T06:55:41;2.55;;;1.10;;
84353;SDS011;74538;43.522;1.516;2024-02-26T06:58:07;3.80;;;1.03;;
84353;SDS011;74538;43.522;1.516;2024-02-26T07:00:33;2.95;;;1.00;;
84353;SDS011;74538;43.522;1.516;2024-02-26T07:02:59;2.92;;;1.08;;
84353;SDS011;74538;43.522;1.516;2024-02-26T07:05:25;3.37;;;1.13;;
84353;SDS011;74538;43.522;1.516;2024-02-26T07:07:50;2.40;;;1.00;;
84353;SDS011;74538;43.522;1.516;2024-02-26T07:10:16;2.63;;;1.27;;
84353;SDS011;74538;43.522;1.516;2024-02-26T07:12:42;3.67;;;1.30;;
84353;SDS011;74538;43.522;1.516;2024-02-26T07:15:09;2.53;;;0.90;;
84353;SDS011;74538;43.522;1.516;2024-02-26T07:17:35;3.13;;;1.02;;
84353;SDS011;74538;43.522;1.516;2024-02-26T07:20:01;2.40;;;1.00;;
84353;SDS011;74538;43.522;1.516;2024-02-26T07:22:29;3.00;;;0.95;;
84353;SDS011;74538;43.522;1.516;2024-02-26T07:24:55;2.72;;;1.00;;
84353;SDS011;74538;43.522;1.516;2024-02-26T07:27:20;3.00;;;1.10;;
84353;SDS011;74538;43.522;1.516;2024-02-26T07:29:46;2.63;;;1.10;;
84353;SDS011;74538;43.522;1.516;2024-02-26T07:32:12;3.20;;;0.90;;
84353;SDS011;74538;43.522;1.516;2024-02-26T07:34:38;2.92;;;1.10;;
84353;SDS011;74538;43.522;1.516;2024-02-26T07:37:07;2.90;;;1.30;;
84353;SDS011;74538;43.522;1.516;2024-02-26T07:39:33;2.43;;;0.80;;
84353;SDS011;74538;43.522;1.516;2024-02-26T07:41:58;2.33;;;1.00;;
84353;SDS011;74538;43.522;1.516;2024-02-26T07:44:24;2.60;;;1.00;;
84353;SDS011;74538;43.522;1.516;2024-02-26T07:46:49;2.80;;;1.00;;
84353;SDS011;74538;43.522;1.516;2024-02-26T07:49:15;3.50;;;1.15;;
84353;SDS011;74538;43.522;1.516;2024-02-26T07:51:40;2.70;;;0.90;;
84353;SDS011;74538;43.522;1.516;2024-02-26T07:54:06;2.50;;;0.90;;
84353;SDS011;74538;43.522;1.516;2024-02-26T07:56:32;2.70;;;0.87;;
84353;SDS011;74538;43.522;1.516;2024-02-26T07:58:57;2.40;;;0.90;;
84353;SDS011;74538;43.522;1.516;2024-02-26T08:01:23;2.60;;;0.90;;
84353;SDS011;74538;43.522;1.516;2024-02-26T08:03:48;2.33;;;0.87;;
84353;SDS011;74538;43.522;1.516;2024-02-26T08:06:14;2.50;;;0.90;;
84353;SDS011;74538;43.522;1.516;2024-02-26T08:08:39;3.05;;;0.90;;
84353;SDS011;74538;43.522;1.516;2024-02-26T08:11:05;2.40;;;1.00;;
84353;SDS011;74538;43.522;1.516;2024-02-26T08:13:30;2.23;;;0.80;;
84353;SDS011;74538;43.522;1.516;2024-02-26T08:15:56;2.78;;;1.10;;
84353;SDS011;74538;43.522;1.516;2024-02-26T08:18:21;2.77;;;1.03;;
84353;SDS011;74538;43.522;1.516;2024-02-26T08:20:47;2.33;;;0.90;;
84353;SDS011;74538;43.522;1.516;2024-02-26T08:23:14;2.20;;;0.90;;
84353;SDS011;74538;43.522;1.516;2024-02-26T08:25:39;2.88;;;1.00;;
84353;SDS011;74538;43.522;1.516;2024-02-26T08:28:05;2.77;;;0.70;;
84353;SDS011;74538;43.522;1.516;2024-02-26T08:30:31;2.50;;;1.08;;
84353;SDS011;74538;43.522;1.516;2024-02-26T08:32:56;2.50;;;0.77;;
84353;SDS011;74538;43.522;1.516;2024-02-26T08:35:22;2.30;;;0.90;;
84353;SDS011;74538;43.522;1.516;2024-02-26T08:37:47;3.07;;;1.07;;
84353;SDS011;74538;43.522;1.516;2024-02-26T08:40:13;2.60;;;1.03;;
84353;SDS011;74538;43.522;1.516;2024-02-26T08:42:39;3.17;;;1.00;;
84353;SDS011;74538;43.522;1.516;2024-02-26T08:45:05;2.65;;;0.98;;
84353;SDS011;74538;43.522;1.516;2024-02-26T08:47:32;2.30;;;0.80;;
84353;SDS011;74538;43.522;1.516;2024-02-26T08:49:57;2.55;;;0.80;;
84353;SDS011;74538;43.522;1.516;2024-02-26T08:52:23;2.95;;;0.90;;
84353;SDS011;74538;43.522;1.516;2024-02-26T08:54:49;2.77;;;1.00;;
84353;SDS011;74538;43.522;1.516;2024-02-26T08:57:15;2.33;;;0.80;;
84353;SDS011;74538;43.522;1.516;2024-02-26T08:59:41;2.67;;;1.10;;
84353;SDS011;74538;43.522;1.516;2024-02-26T09:02:07;3.00;;;1.10;;
84353;SDS011;74538;43.522;1.516;2024-02-26T09:04:34;2.42;;;0.90;;
84353;SDS011;74538;43.522;1.516;2024-02-26T09:07:00;2.83;;;1.00;;
84353;SDS011;74538;43.522;1.516;2024-02-26T09:09:27;2.92;;;1.10;;
84353;SDS011;74538;43.522;1.516;2024-02-26T09:11:52;4.10;;;1.00;;
84353;SDS011;74538;43.522;1.516;2024-02-26T09:14:20;2.60;;;1.00;;
84353;SDS011;74538;43.522;1.516;2024-02-26T09:16:45;2.33;;;1.00;;
84353;SDS011;74538;43.522;1.516;2024-02-26T09:19:11;3.13;;;1.13;;
84353;SDS011;74538;43.522;1.516;2024-02-26T09:21:41;2.60;;;0.90;;
84353;SDS011;74538;43.522;1.516;2024-02-26T09:24:07;2.70;;;0.90;;
84353;SDS011;74538;43.522;1.516;2024-02-26T09:26:33;3.20;;;1.20;;
84353;SDS011;74538;43.522;1.516;2024-02-26T09:28:58;3.97;;;1.17;;
84353;SDS011;74538;43.522;1.516;2024-02-26T09:31:24;2.70;;;1.02;;
84353;SDS011;74538;43.522;1.516;2024-02-26T09:33:49;2.80;;;1.20;;
84353;SDS011;74538;43.522;1.516;2024-02-26T09:36:15;4.70;;;1.07;;
84353;SDS011;74538;43.522;1.516;2024-02-26T09:38:40;3.03;;;1.10;;
84353;SDS011;74538;43.522;1.516;2024-02-26T09:41:06;3.80;;;1.00;;
84353;SDS011;74538;43.522;1.516;2024-02-26T09:43:35;3.25;;;1.08;;
84353;SDS011;74538;43.522;1.516;2024-02-26T09:46:01;2.87;;;1.00;;
84353;SDS011;74538;43.522;1.516;2024-02-26T09:48:28;2.70;;;0.93;;
84353;SDS011;74538;43.522;1.516;2024-02-26T09:50:55;3.15;;;1.27;;
84353;SDS011;74538;43.522;1.516;2024-02-26T09:53:21;2.63;;;0.87;;
84353;SDS011;74538;43.522;1.516;2024-02-26T09:55:47;2.72;;;0.98;;
84353;SDS011;74538;43.522;1.516;2024-02-26T09:58:13;3.10;;;0.90;;
84353;SDS011;74538;43.522;1.516;2024-02-26T10:00:43;2.45;;;1.00;;
84353;SDS011;74538;43.522;1.516;2024-02-26T10:03:14;3.45;;;1.40;;
84353;SDS011;74538;43.522;1.516;2024-02-26T10:05:41;3.63;;;1.10;;
84353;SDS011;74538;43.522;1.516;2024-02-26T10:08:08;3.00;;;1.00;;
84353;SDS011;74538;43.522;1.516;2024-02-26T10:10:36;2.50;;;1.10;;
84353;SDS011;74538;43.522;1.516;2024-02-26T10:13:03;3.33;;;1.02;;
84353;SDS011;74538;43.522;1.516;2024-02-26T10:15:35;4.18;;;1.40;;
84353;SDS011;74538;43.522;1.516;2024-02-26T10:18:04;3.27;;;1.00;;
84353;SDS011;74538;43.522;1.516;2024-02-26T10:20:31;3.25;;;1.23;;
84353;SDS011;74538;43.522;1.516;2024-02-26T10:22:58;3.22;;;1.38;;
84353;SDS011;74538;43.522;1.516;2024-02-26T10:25:27;5.35;;;1.05;;
84353;SDS011;74538;43.522;1.516;2024-02-26T10:27:52;3.63;;;1.30;;
84353;SDS011;74538;43.522;1.516;2024-02-26T10:30:21;4.10;;;1.38;;
84353;SDS011;74538;43.522;1.516;2024-02-26T10:32:48;3.60;;;1.00;;
84353;SDS011;74538;43.522;1.516;2024-02-26T10:35:15;4.43;;;1.13;;
84353;SDS011;74538;43.522;1.516;2024-02-26T10:37:41;3.13;;;1.00;;
84353;SDS011;74538;43.522;1.516;2024-02-26T10:40:11;3.13;;;1.20;;
84353;SDS011;74538;43.522;1.516;2024-02-26T10:42:37;3.43;;;0.97;;
84353;SDS011;74538;43.522;1.516;2024-02-26T10:45:06;2.88;;;0.90;;
84353;SDS011;74538;43.522;1.516;2024-02-26T10:47:34;4.18;;;1.15;;
84353;SDS011;74538;43.522;1.516;2024-02-26T10:50:03;2.58;;;0.80;;
84353;SDS011;74538;43.522;1.516;2024-02-26T10:52:31;2.75;;;0.80;;
84353;SDS011;74538;43.522;1.516;2024-02-26T10:55:01;3.20;;;1.20;;
84353;SDS011;74538;43.522;1.516;2024-02-26T10:57:33;5.70;;;1.00;;
84353;SDS011;74538;43.522;1.516;2024-02-26T11:00:07;3.95;;;1.38;;
84353;SDS011;74538;43.522;1.516;2024-02-26T11:02:35;2.65;;;0.95;;
84353;SDS011;74538;43.522;1.516;2024-02-26T11:05:05;2.55;;;0.80;;
84353;SDS011;74538;43.522;1.516;2024-02-26T11:07:32;3.73;;;0.80;;
84353;SDS011;74538;43.522;1.516;2024-02-26T11:09:59;4.15;;;1.15;;
84353;SDS011;74538;43.522;1.516;2024-02-26T11:12:26;4.55;;;1.30;;
84353;SDS011;74538;43.522;1.516;2024-02-26T11:14:53;4.05;;;1.13;;
84353;SDS011;74538;43.522;1.516;2024-02-26T11:17:26;3.15;;;1.02;;
84353;SDS011;74538;43.522;1.516;2024-02-26T11:19:56;3.00;;;1.00;;
84353;SDS011;74538;43.522;1.516;2024-02-26T11:22:23;3.17;;;1.20;;
84353;SDS011;74538;43.522;1.516;2024-02-26T11:24:51;2.90;;;1.27;;
84353;SDS011;74538;43.522;1.516;2024-02-26T11:27:19;2.92;;;1.00;;
84353;SDS011;74538;43.522;1.516;2024-02-26T11:29:49;5.13;;;1.40;;
84353;SDS011;74538;43.522;1.516;2024-02-26T11:32:17;2.77;;;0.83;;
84353;SDS011;74538;43.522;1.516;2024-02-26T11:34:43;3.45;;;1.10;;
84353;SDS011;74538;43.522;1.516;2024-02-26T11:37:10;4.18;;;1.27;;
84353;SDS011;74538;43.522;1.516;2024-02-26T11:39:37;2.75;;;1.00;;
84353;SDS011;74538;43.522;1.516;2024-02-26T11:42:07;4.20;;;0.90;;
84353;SDS011;74538;43.522;1.516;2024-02-26T11:44:33;2.77;;;1.03;;
84353;SDS011;74538;43.522;1.516;2024-02-26T11:47:00;3.55;;;0.90;;
84353;SDS011;74538;43.522;1.516;2024-02-26T11:49:38;3.70;;;0.90;;
84353;SDS011;74538;43.522;1.516;2024-02-26T11:52:08;3.28;;;0.98;;
84353;SDS011;74538;43.522;1.516;2024-02-26T11:57:26;3.17;;;1.07;;
84353;SDS011;74538;43.522;1.516;2024-02-26T12:02:51;2.80;;;1.13;;
84353;SDS011;74538;43.522;1.516;2024-02-26T12:05:23;4.75;;;1.05;;
84353;SDS011;74538;43.522;1.516;2024-02-26T12:07:54;3.10;;;0.90;;
84353;SDS011;74538;43.522;1.516;2024-02-26T12:10:32;2.47;;;0.80;;
84353;SDS011;74538;43.522;1.516;2024-02-26T12:13:13;3.00;;;1.00;;
84353;SDS011;74538;43.522;1.516;2024-02-26T12:15:41;2.70;;;1.30;;
84353;SDS011;74538;43.522;1.516;2024-02-26T12:18:23;2.30;;;0.90;;
84353;SDS011;74538;43.522;1.516;2024-02-26T12:21:04;3.70;;;1.10;;
84353;SDS011;74538;43.522;1.516;2024-02-26T12:23:30;3.38;;;1.00;;
84353;SDS011;74538;43.522;1.516;2024-02-26T12:25:59;3.03;;;1.27;;
84353;SDS011;74538;43.522;1.516;2024-02-26T12:28:31;2.73;;;0.77;;
84353;SDS011;74538;43.522;1.516;2024-02-26T12:30:56;2.67;;;1.10;;
84353;SDS011;74538;43.522;1.516;2024-02-26T12:33:24;2.90;;;1.02;;
84353;SDS011;74538;43.522;1.516;2024-02-26T12:35:51;2.97;;;1.00;;
84353;SDS011;74538;43.522;1.516;2024-02-26T12:38:17;2.70;;;1.00;;
84353;SDS011;74538;43.522;1.516;2024-02-26T12:40:43;3.87;;;0.93;;
84353;SDS011;74538;43.522;1.516;2024-02-26T12:43:09;3.15;;;1.30;;
84353;SDS011;74538;43.522;1.516;2024-02-26T12:45:41;3.00;;;1.00;;
84353;SDS011;74538;43.522;1.516;2024-02-26T12:48:09;2.60;;;1.02;;
84353;SDS011;74538;43.522;1.516;2024-02-26T12:50:34;2.70;;;1.10;;
84353;SDS011;74538;43.522;1.516;2024-02-26T12:53:00;2.63;;;0.97;;
84353;SDS011;74538;43.522;1.516;2024-02-26T12:55:26;3.47;;;1.17;;
84353;SDS011;74538;43.522;1.516;2024-02-26T12:57:52;2.60;;;0.90;;
84353;SDS011;74538;43.522;1.516;2024-02-26T13:00:20;3.53;;;1.02;;
84353;SDS011;74538;43.522;1.516;2024-02-26T13:02:49;3.70;;;0.90;;
84353;SDS011;74538;43.522;1.516;2024-02-26T13:05:16;2.58;;;0.90;;
84353;SDS011;74538;43.522;1.516;2024-02-26T13:07:44;3.58;;;1.10;;
84353;SDS011;74538;43.522;1.516;2024-02-26T13:10:12;2.92;;;0.82;;
84353;SDS011;74538;43.522;1.516;2024-02-26T13:12:44;2.65;;;1.20;;
84353;SDS011;74538;43.522;1.516;2024-02-26T13:15:15;2.77;;;0.90;;
84353;SDS011;74538;43.522;1.516;2024-02-26T13:17:42;2.83;;;1.00;;
84353;SDS011;74538;43.522;1.516;2024-02-26T13:20:09;3.50;;;0.90;;
84353;SDS011;74538;43.522;1.516;2024-02-26T13:22:35;2.80;;;0.82;;
84353;SDS011;74538;43.522;1.516;2024-02-26T13:25:02;2.67;;;0.98;;
84353;SDS011;74538;43.522;1.516;2024-02-26T13:27:28;2.47;;;0.93;;
84353;SDS011;74538;43.522;1.516;2024-02-26T13:30:10;2.95;;;0.90;;
84353;SDS011;74538;43.522;1.516;2024-02-26T13:32:40;2.70;;;1.10;;
84353;SDS011;74538;43.522;1.516;2024-02-26T13:35:07;2.58;;;0.90;;
84353;SDS011;74538;43.522;1.516;2024-02-26T13:37:38;2.65;;;0.90;;
84353;SDS011;74538;43.522;1.516;2024-02-26T13:40:07;2.40;;;0.90;;
84353;SDS011;74538;43.522;1.516;2024-02-26T13:42:34;3.53;;;0.95;;
84353;SDS011;74538;43.522;1.516;2024-02-26T13:45:03;3.08;;;1.00;;
84353;SDS011;74538;43.522;1.516;2024-02-26T13:47:33;2.65;;;0.80;;
84353;SDS011;74538;43.522;1.516;2024-02-26T13:50:00;2.60;;;0.80;;
84353;SDS011;74538;43.522;1.516;2024-02-26T13:52:26;3.00;;;0.90;;
84353;SDS011;74538;43.522;1.516;2024-02-26T13:54:52;2.90;;;0.93;;
84353;SDS011;74538;43.522;1.516;2024-02-26T13:57:19;2.95;;;0.88;;
84353;SDS011;74538;43.522;1.516;2024-02-26T13:59:45;2.85;;;0.90;;
84353;SDS011;74538;43.522;1.516;2024-02-26T14:02:10;2.57;;;0.90;;
84353;SDS011;74538;43.522;1.516;2024-02-26T14:04:37;1.98;;;0.70;;
84353;SDS011;74538;43.522;1.516;2024-02-26T14:07:03;3.13;;;0.98;;
84353;SDS011;74538;43.522;1.516;2024-02-26T14:09:29;2.43;;;0.87;;
84353;SDS011;74538;43.522;1.516;2024-02-26T14:11:57;2.30;;;0.80;;
84353;SDS011;74538;43.522;1.516;2024-02-26T14:14:24;3.00;;;1.10;;
84353;SDS011;74538;43.522;1.516;2024-02-26T14:16:51;2.30;;;0.93;;
84353;SDS011;74538;43.522;1.516;2024-02-26T14:19:16;2.17;;;0.97;;
84353;SDS011;74538;43.522;1.516;2024-02-26T14:21:42;2.72;;;0.90;;
84353;SDS011;74538;43.522;1.516;2024-02-26T14:24:08;2.90;;;1.00;;
84353;SDS011;74538;43.522;1.516;2024-02-26T14:26:33;2.40;;;0.80;;
84353;SDS011;74538;43.522;1.516;2024-02-26T14:28:59;2.50;;;0.80;;
84353;SDS011;74538;43.522;1.516;2024-02-26T14:31:25;6.17;;;0.97;;
84353;SDS011;74538;43.522;1.516;2024-02-26T14:33:51;4.20;;;0.93;;
84353;SDS011;74538;43.522;1.516;2024-02-26T14:36:19;2.37;;;1.00;;
84353;SDS011;74538;43.522;1.516;2024-02-26T14:38:46;2.90;;;0.88;;
84353;SDS011;74538;43.522;1.516;2024-02-26T14:41:12;2.40;;;1.00;;
84353;SDS011;74538;43.522;1.516;2024-02-26T14:43:37;3.17;;;0.87;;
84353;SDS011;74538;43.522;1.516;2024-02-26T14:46:03;2.70;;;0.70;;
84353;SDS011;74538;43.522;1.516;2024-02-26T14:48:29;2.13;;;0.70;;
84353;SDS011;74538;43.522;1.516;2024-02-26T14:50:55;2.45;;;0.90;;